• Join FlightAware (Why Join?)
  • Login
  • US Flag 
07:06PM EDT


 

Airport Tracker/Info


-or-


 

Live Flight TrackerFlight Track Log ✈ ASQ5941 ✈ 22-Apr-2013 ✈ KORD - KAVP

Flight Track Log - Related Links

Times and Time Zones

All times are in EDT time to prevent confusion due to time zone crossing. See the ASQ5941 flight status page for this flight to view local times or setup timezone preferences in your user account.

Time Position Orientation Groundspeed Altitude Reporting Facility
EDT Latitude Longitude Course Direction KTS MPH feet Rate Location/Type
03:48PM 41.9500 -87.9167 90° East 168 193 1,600  Level Chicago TRACON
03:50PM 41.9000 -87.8833 154° Southeast 204 235 3,900 1,260 Climbing Chicago TRACON
03:51PM 41.8675 -87.7606 110° East 239 275 5,000 360 Climbing Chicago Center
03:52PM 42.0572 -87.3204 78° East  Level FlightAware Approximate
03:52PM 41.8989 -87.6753 64° Northeast 250 288 4,900  Level Chicago Center
03:53PM 42.0798 -87.1734 78° East  Level FlightAware Approximate
03:53PM 41.9297 -87.5847 65° Northeast 260 299 5,700  Level Chicago Center
03:54PM 42.1000 -87.0261 90° East  Level FlightAware Approximate
03:54PM 41.9625 -87.4933 64° Northeast 270 311 8,000  Level Chicago Center
03:55PM 41.9964 -87.3936 65° Northeast 290 334 9,900 2,160 Climbing Chicago Center
03:56PM 42.0406 -87.2675 65° Northeast 312 359 12,500 1,740 Climbing Chicago Center
03:57PM 42.0794 -87.1606 64° Northeast 318 366 13,600 900 Climbing Chicago Center
03:58PM 42.1117 -87.0303 72° East 370 426 14,400 840 Climbing Chicago Center
03:59PM 42.1186 -86.8875 86° East 384 442 15,400 1,080 Climbing Chicago Center
04:00PM 42.1233 -86.7425 87° East 389 448 16,700 1,140 Climbing Chicago Center
04:01PM 42.1294 -86.5767 87° East 392 451 17,800 1,080 Climbing Chicago Center
04:02PM 42.1339 -86.4275 88° East 396 456 19,000 1,200 Climbing Chicago Center
04:03PM 42.1397 -86.2781 87° East 399 459 20,400 1,200 Climbing Chicago Center
04:05PM 42.1439 -86.1275 88° East 402 463 21,600 1,260 Climbing Chicago Center
04:06PM 42.1439 -85.9575 90° East 405 466 23,100 1,260 Climbing Chicago Center
04:07PM 42.1419 -85.8100 91° East 399 459 24,300 1,200 Climbing Chicago Center
04:08PM 42.1397 -85.6600 91° East 402 463 25,600 1,200 Climbing Chicago Center
04:09PM 42.1386 -85.5111 91° East 400 460 26,800 1,200 Climbing Chicago Center
04:10PM 42.1369 -85.3625 91° East 400 460 28,100 1,260 Climbing Chicago Center
04:11PM 42.1383 -85.1958 89° East 402 463 29,500 1,260 Climbing Cleveland Center
04:12PM 42.1356 -85.0528 91° East 396 456 30,700 720 Climbing Cleveland Center
04:13PM 42.1331 -84.8983 91° East 405 466 31,000 120 Climbing Cleveland Center
04:14PM 42.1286 -84.7356 92° East 410 472 31,000  Level Cleveland Center
04:15PM 42.1264 -84.5647 91° East 433 498 31,000  Level Cleveland Center
04:16PM 42.1325 -84.3831 87° East 439 505 31,000  Level Cleveland Center
04:17PM 42.1481 -84.2297 82° East 445 512 31,000  Level Cleveland Center
04:18PM 42.1658 -84.0628 82° East 450 518 31,000  Level Cleveland Center
04:19PM 42.1853 -83.8928 81° East 450 518 31,000  Level Cleveland Center
04:20PM 42.2025 -83.7256 82° East 450 518 31,000  Level Cleveland Center
04:21PM 42.2242 -83.5386 81° East 455 524 31,000  Level Cleveland Center
04:22PM 42.2306 -83.3678 87° East 455 524 31,000  Level Cleveland Center
04:23PM 42.2303 -83.1967 90° East 455 524 31,000  Level Cleveland Center
04:24PM 42.2319 -83.0258 89° East 460 529 31,000  Level Cleveland Center
04:25PM 42.2333 -82.8547 89° East 460 529 31,000  Level Cleveland Center
04:26PM 42.2325 -82.6808 90° East 455 524 31,000  Level Cleveland Center
04:27PM 42.2333 -82.5125 90° East 455 524 31,000  Level Cleveland Center
04:28PM 42.2342 -82.3386 90° East 455 524 31,000  Level Cleveland Center
04:29PM 42.2325 -82.1675 91° East 455 524 31,000  Level Cleveland Center
04:30PM 42.2344 -82.0106 89° East 460 529 31,000  Level Cleveland Center
04:31PM 42.2325 -81.8256 91° East 460 529 31,000  Level Cleveland Center
04:32PM 42.2300 -81.6486 91° East 460 529 31,000  Level Cleveland Center
04:33PM 42.2294 -81.4778 90° East 460 529 31,000  Level Cleveland Center
04:34PM 42.2286 -81.3039 90° East 460 529 31,000  Level Cleveland Center
04:35PM 42.2275 -81.1328 90° East 460 529 31,000  Level Cleveland Center
04:36PM 42.2261 -80.9589 91° East 460 529 31,000  Level Cleveland Center
04:37PM 42.2225 -80.7878 92° East 460 529 31,000  Level Cleveland Center
04:38PM 42.2206 -80.6111 91° East 460 529 31,000  Level Cleveland Center
04:39PM 42.2164 -80.4542 92° East 460 529 31,000  Level Cleveland Center
04:40PM 42.2181 -80.2803 89° East 460 529 31,000  Level Cleveland Center
04:41PM 42.2131 -80.0814 92° East 468 539 31,000  Level Cleveland Center
04:42PM 42.2103 -79.9300 91° East 461 531 31,000  Level Cleveland Center
04:43PM 42.2072 -79.7561 91° East 461 531 31,000  Level Cleveland Center
04:44PM 42.2017 -79.5825 92° East 461 531 31,000  Level Cleveland Center
04:45PM 42.1978 -79.4089 92° East 461 531 31,000  Level Cleveland Center
04:46PM 42.1856 -79.2353 95° East 461 531 31,000  Level Cleveland Center
04:47PM 42.1564 -79.0706 103° East 461 531 31,000 -300 Level Cleveland Center
04:48PM 42.1250 -78.9006 104° East 461 531 30,500 -720 Descending Cleveland Center
04:49PM 42.0933 -78.7392 105° East 461 531 29,600 -960 Descending Cleveland Center
04:50PM 42.0614 -78.5750 105° East 455 524 28,600 -960 Descending Cleveland Center
04:51PM 42.0292 -78.4083 105° East 450 518 27,700 -960 Descending Cleveland Center
04:52PM 41.9967 -78.2444 105° East 450 518 26,700 -1,260 Descending Cleveland Center
04:54PM 41.9219 -77.8653 105° East 444 511 23,700 -1,200 Descending New York Center
04:55PM 41.8875 -77.7056 106° East 444 511 23,000 -360 Descending New York Center
04:56PM 41.8550 -77.5489 106° East 444 511 23,000  Level New York Center
04:57PM 41.8222 -77.3897 105° East 444 511 23,000  Level New York Center
04:58PM 41.7875 -77.2278 106° East 449 517 23,000  Level New York Center
04:59PM 41.7611 -77.1000 105° East 449 517 23,000 -1,080 Level New York Center
05:00PM 41.7242 -76.9269 106° East 449 517 20,900 -2,280 Descending New York Center
05:01PM 41.6906 -76.7736 106° East 443 510 18,600 -2,220 Descending New York Center
05:02PM 41.6583 -76.6236 106° East 426 490 16,600 -2,640 Descending New York Center
05:03PM 41.6258 -76.4764 106° East 390 449 13,300 -2,580 Descending New York Center
05:04PM 41.5986 -76.3494 106° East 369 425 11,400 -1,440 Descending New York Center
05:05PM 41.5764 -76.2447 106° East 323 372 10,500 -1,200 Descending New York Center
05:06PM 41.5556 -76.1544 107° East 283 326 9,000 -1,620 Descending New York Center
05:07PM 41.5244 -76.0606 114° Southeast 255 293 7,300 -1,500 Descending New York Center
05:08PM 41.5069 -75.9817 106° East 250 288 6,100 -1,260 Descending New York Center
05:09PM 41.4897 -75.9000 106° East 239 275 4,900 -1,080 Descending New York Center
05:10PM 41.4703 -75.8181 108° East 234 269 4,000 -480 Descending New York Center
05:11PM 41.4528 -75.7394 107° East 229 264 4,000  Level New York Center